Time;durP1;ratioP1;P1;durP2;ratioP2;P2;SDS_P1;SDS_P2;PMS_P1;PMS_P2;Temp;Humidity;BMP_temperature;BMP_pressure;BME280_temperature;BME280_humidity;BME280_pressure;Samples;Min_cycle;Max_cycle;Signal;HPM_P1;HPM_P2
2023/01/04 00:01:32;;;;;;;1.23;1.17;;;5.30;99.90;;;;;;5074538;28;20201;-69
2023/01/04 00:03:58;;;;;;;0.30;0.30;;;5.30;99.90;;;;;;5075175;28;20298;-68
2023/01/04 00:06:24;;;;;;;1.40;1.10;;;5.30;99.90;;;;;;5075172;28;20534;-68
2023/01/04 00:08:49;;;;;;;0.30;0.30;;;5.30;99.90;;;;;;5075678;28;20174;-69
2023/01/04 00:11:21;;;;;;;0.30;0.30;;;5.30;99.90;;;;;;5075348;28;20196;-68
2023/01/04 00:13:49;;;;;;;0.40;0.40;;;5.30;99.90;;;;;;5075422;28;20174;-69
2023/01/04 00:16:20;;;;;;;0.30;0.30;;;5.30;99.90;;;;;;5075332;28;20170;-69
2023/01/04 00:18:46;;;;;;;1.13;0.82;;;5.20;99.90;;;;;;5075047;28;20285;-68
2023/01/04 00:21:13;;;;;;;1.90;1.90;;;5.10;99.90;;;;;;5074839;28;20272;-69
2023/01/04 00:23:40;;;;;;;0.40;0.40;;;5.20;99.90;;;;;;5075273;28;20396;-69
2023/01/04 00:26:08;;;;;;;0.85;0.85;;;5.20;99.90;;;;;;5074538;28;20165;-69
2023/01/04 00:28:34;;;;;;;0.30;0.30;;;5.20;99.90;;;;;;5075101;28;20637;-69
2023/01/04 00:31:04;;;;;;;0.30;0.30;;;5.30;99.90;;;;;;5074975;28;20182;-69
2023/01/04 00:33:30;;;;;;;1.77;1.67;;;5.40;99.90;;;;;;5075001;28;20530;-69
2023/01/04 00:36:05;;;;;;;0.60;0.60;;;5.40;99.90;;;;;;5074690;28;20173;-68
2023/01/04 00:38:32;;;;;;;1.00;0.60;;;5.50;99.90;;;;;;5074765;28;20515;-69
2023/01/04 00:40:58;;;;;;;0.47;0.47;;;5.50;99.90;;;;;;5074625;28;20198;-69
2023/01/04 00:43:24;;;;;;;0.50;0.50;;;5.50;99.90;;;;;;5075061;28;20187;-68
2023/01/04 00:45:50;;;;;;;0.40;0.40;;;5.50;99.90;;;;;;5074188;28;20264;-69
2023/01/04 00:48:16;;;;;;;0.30;0.30;;;5.40;99.90;;;;;;5074703;28;20238;-69
2023/01/04 00:50:43;;;;;;;1.10;1.10;;;5.30;99.90;;;;;;5074761;28;20169;-68
2023/01/04 00:53:10;;;;;;;0.40;0.40;;;5.30;99.90;;;;;;5074640;28;20545;-69
2023/01/04 00:55:36;;;;;;;0.52;0.52;;;5.20;99.90;;;;;;5074121;28;20576;-68
2023/01/04 00:58:01;;;;;;;0.40;0.40;;;5.20;99.90;;;;;;5074432;28;20410;-69
2023/01/04 01:00:27;;;;;;;0.40;0.40;;;5.30;99.90;;;;;;5073612;28;20630;-68
2023/01/04 01:02:52;;;;;;;0.60;0.60;;;5.30;99.90;;;;;;5074205;28;20185;-69
2023/01/04 01:05:18;;;;;;;0.30;0.30;;;5.20;99.90;;;;;;5074187;28;20258;-69
2023/01/04 01:07:44;;;;;;;0.30;0.30;;;5.20;99.90;;;;;;5074028;28;20175;-69
2023/01/04 01:10:09;;;;;;;0.40;0.40;;;5.30;99.90;;;;;;5074490;28;20619;-69
2023/01/04 01:12:35;;;;;;;0.30;0.30;;;5.20;99.90;;;;;;5074526;28;20228;-68
2023/01/04 01:15:01;;;;;;;0.80;0.80;;;5.10;99.90;;;;;;5073714;28;20180;-69
2023/01/04 01:17:26;;;;;;;0.40;0.40;;;5.10;99.90;;;;;;5073819;28;20165;-69
2023/01/04 01:19:52;;;;;;;0.40;0.40;;;5.10;99.90;;;;;;5072797;28;20209;-69
2023/01/04 01:22:18;;;;;;;0.40;0.40;;;5.20;99.90;;;;;;5074102;28;20189;-69
2023/01/04 01:24:44;;;;;;;0.40;0.40;;;5.20;99.90;;;;;;5073923;28;20161;-69
2023/01/04 01:27:10;;;;;;;0.30;0.30;;;5.20;99.90;;;;;;5073908;28;20526;-69
2023/01/04 01:29:35;;;;;;;0.83;0.83;;;5.20;99.90;;;;;;5073967;28;20631;-69
2023/01/04 01:32:01;;;;;;;0.50;0.50;;;5.10;99.90;;;;;;5073629;28;20189;-69
2023/01/04 01:34:26;;;;;;;0.67;0.50;;;5.20;99.90;;;;;;5073702;28;20223;-68
2023/01/04 01:36:52;;;;;;;0.80;0.80;;;5.30;99.90;;;;;;5073699;28;20181;-69
2023/01/04 01:39:18;;;;;;;0.50;0.50;;;5.30;99.90;;;;;;5074163;28;20199;-69
2023/01/04 01:41:43;;;;;;;0.40;0.40;;;5.20;99.90;;;;;;5073696;28;20678;-69
2023/01/04 01:44:12;;;;;;;1.63;0.63;;;5.20;99.90;;;;;;5073605;28;20173;-68
2023/01/04 01:46:43;;;;;;;0.40;0.40;;;5.20;99.90;;;;;;5073404;28;20631;-69
2023/01/04 01:49:24;;;;;;;1.33;1.33;;;5.20;99.90;;;;;;5073854;28;20584;-69
2023/01/04 01:51:51;;;;;;;1.40;1.30;;;5.20;99.90;;;;;;5073593;28;20539;-69
2023/01/04 01:54:28;;;;;;;0.70;0.70;;;5.10;99.90;;;;;;5073911;28;20178;-69
2023/01/04 01:56:56;;;;;;;0.40;0.40;;;5.10;99.90;;;;;;5073547;28;20172;-69
2023/01/04 01:59:23;;;;;;;3.25;1.77;;;5.00;99.90;;;;;;5073544;28;20197;-69
2023/01/04 02:01:49;;;;;;;0.40;0.40;;;5.00;99.90;;;;;;5073176;28;20273;-69
2023/01/04 02:04:15;;;;;;;0.30;0.30;;;5.00;99.90;;;;;;5073565;28;20206;-68
2023/01/04 02:06:48;;;;;;;0.40;0.40;;;5.00;99.90;;;;;;5073909;28;20515;-69
2023/01/04 02:09:15;;;;;;;0.30;0.30;;;4.90;99.90;;;;;;5073575;28;20177;-69
2023/01/04 02:11:41;;;;;;;0.40;0.40;;;4.80;99.90;;;;;;5076227;28;20189;-69
2023/01/04 02:14:26;;;;;;;0.40;0.40;;;4.70;99.90;;;;;;5077531;28;20178;-69
2023/01/04 02:17:32;;;;;;;0.40;0.40;;;4.70;99.90;;;;;;5077952;28;20264;-69
2023/01/04 02:20:28;;;;;;;0.50;0.50;;;4.60;99.90;;;;;;5077383;28;20200;-69
2023/01/04 02:23:32;;;;;;;0.40;0.40;;;4.50;99.90;;;;;;5077568;28;20181;-69
2023/01/04 02:26:16;;;;;;;0.40;0.40;;;4.50;99.90;;;;;;5075864;28;20205;-68
2023/01/04 02:28:57;;;;;;;0.40;0.40;;;4.50;99.90;;;;;;5077338;28;20173;-69
2023/01/04 02:31:34;;;;;;;1.67;0.60;;;4.50;99.90;;;;;;5077417;28;20193;-68
2023/01/04 02:34:16;;;;;;;0.30;0.30;;;4.40;99.90;;;;;;5077548;28;20637;-69
2023/01/04 02:37:12;;;;;;;0.30;0.30;;;4.30;99.90;;;;;;5077141;28;20182;-69
2023/01/04 02:40:06;;;;;;;1.60;1.60;;;4.10;99.90;;;;;;5077202;28;20197;-69
2023/01/04 02:46:04;;;;;;;1.90;1.80;;;4.10;99.90;;;;;;5077323;28;20691;-68
2023/01/04 02:51:35;;;;;;;0.93;0.93;;;4.10;99.90;;;;;;5076514;28;20195;-69
2023/01/04 02:54:07;;;;;;;0.40;0.40;;;4.10;99.90;;;;;;5076912;28;20166;-69
2023/01/04 02:56:42;;;;;;;0.30;0.30;;;4.10;99.90;;;;;;5077075;28;20195;-69
2023/01/04 02:59:25;;;;;;;0.85;0.85;;;4.10;99.90;;;;;;5076376;28;20193;-69
2023/01/04 03:08:21;;;;;;;0.30;0.30;;;4.00;99.90;;;;;;5076602;28;20185;-69
2023/01/04 03:10:58;;;;;;;0.38;0.38;;;3.90;99.90;;;;;;5076608;28;20184;-69
2023/01/04 03:13:29;;;;;;;0.50;0.50;;;3.90;99.90;;;;;;5076798;28;20157;-68
2023/01/04 03:16:12;;;;;;;0.40;0.40;;;4.00;99.90;;;;;;5076117;28;20158;-68
2023/01/04 03:18:44;;;;;;;0.30;0.30;;;4.00;99.90;;;;;;5076341;28;20288;-68
2023/01/04 03:21:12;;;;;;;0.40;0.40;;;3.90;99.90;;;;;;5076291;28;20190;-69
2023/01/04 03:50:02;;;;;;;0.50;0.50;;;3.70;99.90;;;;;;5076285;28;20626;-69
2023/01/04 03:52:31;;;;;;;0.30;0.30;;;3.70;99.90;;;;;;5075469;28;20193;-69
2023/01/04 03:54:59;;;;;;;0.40;0.40;;;3.70;99.90;;;;;;5075853;28;20222;-69
2023/01/04 03:57:25;;;;;;;1.67;1.58;;;3.70;99.90;;;;;;5075392;28;20227;-69
2023/01/04 03:59:56;;;;;;;0.40;0.40;;;3.80;99.90;;;;;;5075562;28;20287;-69
2023/01/04 04:02:27;;;;;;;0.77;0.77;;;3.90;99.90;;;;;;5075572;28;20615;-68
2023/01/04 04:10:21;;;;;;;0.40;0.40;;;3.70;99.90;;;;;;5075079;28;21064;-69
2023/01/04 04:12:47;;;;;;;0.40;0.40;;;3.70;99.90;;;;;;5075467;28;20193;-69
2023/01/04 04:15:14;;;;;;;0.32;0.32;;;3.70;99.90;;;;;;5074963;28;20193;-69
2023/01/04 04:17:40;;;;;;;0.38;0.38;;;3.70;99.90;;;;;;5075474;28;20195;-69
2023/01/04 04:20:06;;;;;;;0.32;0.32;;;3.60;99.90;;;;;;5075267;28;20565;-69
2023/01/04 04:22:32;;;;;;;0.60;0.60;;;3.60;99.90;;;;;;5074667;28;20193;-68
2023/01/04 04:24:57;;;;;;;0.40;0.40;;;3.60;99.90;;;;;;5074951;28;20700;-69
2023/01/04 04:27:23;;;;;;;0.40;0.40;;;3.60;99.90;;;;;;5074810;28;20677;-68
2023/01/04 04:29:49;;;;;;;0.50;0.50;;;3.70;99.90;;;;;;5075226;28;20170;-69
2023/01/04 04:32:14;;;;;;;0.60;0.60;;;3.80;99.90;;;;;;5074828;28;20463;-69
2023/01/04 04:34:40;;;;;;;0.60;0.60;;;3.80;99.90;;;;;;5074752;28;20178;-68
2023/01/04 04:37:06;;;;;;;0.50;0.50;;;3.80;99.90;;;;;;5074655;28;20181;-69
2023/01/04 04:39:31;;;;;;;0.40;0.40;;;3.70;99.90;;;;;;5074645;28;20205;-69
2023/01/04 04:41:57;;;;;;;0.30;0.30;;;3.60;99.90;;;;;;5074449;28;20181;-69
2023/01/04 04:44:23;;;;;;;1.60;0.80;;;3.60;99.90;;;;;;5074607;28;20169;-69
2023/01/04 04:46:48;;;;;;;0.50;0.50;;;3.60;99.90;;;;;;5074960;28;20336;-68
2023/01/04 04:49:15;;;;;;;0.47;0.47;;;3.60;99.90;;;;;;5074950;28;20256;-69
2023/01/04 04:51:41;;;;;;;0.40;0.40;;;3.60;99.90;;;;;;5074324;28;20201;-69
2023/01/04 04:54:09;;;;;;;0.68;0.68;;;3.50;99.90;;;;;;5074311;28;20181;-69
2023/01/04 04:56:37;;;;;;;0.40;0.40;;;3.50;99.90;;;;;;5074548;28;20174;-69
2023/01/04 04:59:04;;;;;;;0.38;0.38;;;3.60;99.90;;;;;;5074450;28;20281;-69
2023/01/04 05:01:30;;;;;;;0.35;0.35;;;3.60;99.90;;;;;;5074400;28;20189;-68
2023/01/04 05:03:56;;;;;;;0.40;0.40;;;3.60;99.90;;;;;;5074216;28;20191;-69
2023/01/04 05:06:22;;;;;;;0.47;0.47;;;3.60;99.90;;;;;;5074193;28;20410;-69
2023/01/04 05:08:48;;;;;;;0.40;0.40;;;3.70;99.90;;;;;;5074173;28;20425;-69
2023/01/04 05:11:14;;;;;;;0.50;0.50;;;3.60;99.90;;;;;;5073846;28;20272;-68
2023/01/04 05:13:39;;;;;;;0.30;0.30;;;3.60;99.90;;;;;;5074431;28;20227;-68
2023/01/04 05:16:06;;;;;;;0.40;0.40;;;3.70;99.90;;;;;;5074318;28;20635;-68
2023/01/04 05:18:32;;;;;;;0.30;0.30;;;3.70;99.90;;;;;;5073957;28;20193;-69
2023/01/04 05:20:58;;;;;;;0.30;0.30;;;3.80;99.90;;;;;;5073900;28;20231;-69
2023/01/04 05:23:24;;;;;;;0.40;0.40;;;3.70;99.90;;;;;;5074072;28;20404;-69
2023/01/04 05:26:00;;;;;;;0.90;0.90;;;3.80;99.90;;;;;;5073498;28;20408;-69
2023/01/04 05:28:26;;;;;;;0.90;0.90;;;3.80;99.90;;;;;;5074379;28;20169;-69
2023/01/04 05:30:54;;;;;;;0.40;0.40;;;3.80;99.90;;;;;;5074230;28;20514;-69
2023/01/04 05:33:25;;;;;;;1.63;1.52;;;3.80;99.90;;;;;;5073643;28;20534;-69
2023/01/04 05:35:52;;;;;;;0.40;0.40;;;3.80;99.90;;;;;;5073745;28;20177;-69
2023/01/04 05:38:19;;;;;;;1.45;1.35;;;3.70;99.90;;;;;;5073467;28;20215;-68
2023/01/04 05:40:46;;;;;;;0.80;0.80;;;3.70;99.90;;;;;;5073640;28;20173;-69
2023/01/04 05:43:12;;;;;;;1.17;1.17;;;3.60;99.90;;;;;;5074122;28;20185;-68
2023/01/04 05:45:42;;;;;;;0.30;0.30;;;3.50;99.90;;;;;;5071115;28;20173;-69
2023/01/04 05:48:08;;;;;;;0.40;0.40;;;3.60;99.90;;;;;;5073605;28;20483;-68
2023/01/04 05:50:33;;;;;;;1.90;0.80;;;4.50;99.90;;;;;;5073778;28;20261;-69
2023/01/04 05:52:59;;;;;;;2.53;1.40;;;5.90;99.90;;;;;;5073849;28;20197;-70
2023/01/04 05:55:25;;;;;;;0.60;0.60;;;6.90;99.90;;;;;;5073266;28;20226;-70
2023/01/04 05:57:50;;;;;;;1.03;0.93;;;7.70;99.90;;;;;;5073959;28;20176;-70
2023/01/04 06:00:16;;;;;;;0.50;0.50;;;8.40;99.90;;;;;;5073543;28;20243;-71
2023/01/04 06:02:42;;;;;;;1.13;1.10;;;9.00;99.90;;;;;;5073456;28;20427;-69
2023/01/04 06:05:09;;;;;;;0.40;0.40;;;9.10;98.10;;;;;;5073423;28;20396;-70
2023/01/04 06:07:35;;;;;;;0.30;0.30;;;8.70;95.40;;;;;;5073267;28;20173;-69
2023/01/04 06:10:01;;;;;;;0.35;0.35;;;8.10;94.90;;;;;;5073785;28;20173;-70
2023/01/04 06:12:29;;;;;;;0.40;0.40;;;7.60;95.50;;;;;;5071379;28;20495;-69
2023/01/04 06:14:55;;;;;;;37.40;3.00;;;7.10;95.80;;;;;;5071724;28;20186;-70
2023/01/04 06:17:20;;;;;;;1.77;1.67;;;6.60;95.90;;;;;;5073338;28;20173;-70
2023/01/04 06:19:46;;;;;;;1.60;1.50;;;6.10;96.50;;;;;;5071145;28;20571;-70
2023/01/04 06:22:11;;;;;;;2.70;1.23;;;5.80;97.20;;;;;;5073292;28;20182;-70
2023/01/04 06:24:37;;;;;;;5.87;2.50;;;5.60;97.60;;;;;;5072980;28;20180;-70
2023/01/04 06:27:03;;;;;;;0.50;0.50;;;5.40;98.10;;;;;;5073342;28;20524;-70
2023/01/04 06:29:28;;;;;;;0.80;0.60;;;5.30;98.60;;;;;;5072495;28;20208;-71
2023/01/04 06:31:54;;;;;;;0.50;0.50;;;5.10;99.00;;;;;;5072135;28;20269;-70
2023/01/04 06:34:20;;;;;;;0.73;0.70;;;5.20;99.40;;;;;;5072777;28;20177;-70
2023/01/04 06:36:45;;;;;;;0.50;0.50;;;5.10;99.70;;;;;;5071159;28;20183;-70
2023/01/04 06:39:13;;;;;;;3.20;3.07;;;5.00;99.90;;;;;;5073305;28;20576;-70
2023/01/04 06:41:40;;;;;;;6.35;3.90;;;5.00;99.90;;;;;;5073020;28;20540;-70
2023/01/04 06:44:06;;;;;;;3.70;3.33;;;5.00;99.90;;;;;;5069790;28;20529;-71
2023/01/04 06:46:32;;;;;;;0.73;0.73;;;5.10;99.90;;;;;;5071382;28;20169;-70
2023/01/04 06:48:59;;;;;;;1.50;1.50;;;5.10;99.90;;;;;;5073194;28;20204;-69
2023/01/04 06:51:27;;;;;;;2.10;2.00;;;5.00;99.90;;;;;;5072773;28;20191;-71
2023/01/04 06:53:54;;;;;;;1.45;1.35;;;5.10;99.90;;;;;;5072976;28;20195;-70
2023/01/04 06:56:20;;;;;;;2.95;2.60;;;5.00;99.90;;;;;;5073297;28;20644;-70
2023/01/04 06:58:45;;;;;;;2.83;1.23;;;4.90;99.90;;;;;;5074573;28;20213;-70
2023/01/04 07:01:11;;;;;;;2.73;2.63;;;5.00;99.90;;;;;;5076264;28;20553;-69
2023/01/04 07:03:37;;;;;;;1.20;1.17;;;5.00;99.90;;;;;;5074469;28;20248;-70
2023/01/04 07:06:05;;;;;;;1.33;1.23;;;5.00;99.90;;;;;;5076298;28;20642;-70
2023/01/04 07:08:30;;;;;;;2.00;1.90;;;5.00;99.90;;;;;;5076283;28;20617;-70
2023/01/04 07:10:56;;;;;;;4.83;2.20;;;5.00;99.90;;;;;;5076247;28;20205;-70
2023/01/04 07:13:22;;;;;;;0.57;0.57;;;5.00;99.90;;;;;;5074225;28;20180;-70
2023/01/04 07:15:47;;;;;;;0.60;0.60;;;5.10;99.90;;;;;;5075957;28;20599;-70
2023/01/04 07:18:13;;;;;;;0.33;0.33;;;5.10;99.90;;;;;;5076153;28;20197;-69
2023/01/04 07:20:38;;;;;;;0.30;0.30;;;5.30;99.90;;;;;;5076142;28;20177;-70
2023/01/04 07:23:05;;;;;;;0.40;0.40;;;5.40;99.90;;;;;;5074334;28;20200;-69
2023/01/04 07:25:31;;;;;;;0.40;0.40;;;5.50;99.90;;;;;;5075343;28;20202;-68
2023/01/04 07:27:57;;;;;;;0.87;0.87;;;5.60;99.90;;;;;;5076073;28;20197;-70
2023/01/04 07:30:23;;;;;;;0.40;0.40;;;5.60;99.90;;;;;;5074146;28;20773;-70
2023/01/04 07:32:51;;;;;;;0.40;0.40;;;5.70;99.90;;;;;;5076156;28;20269;-70
2023/01/04 07:35:17;;;;;;;0.70;0.50;;;5.80;99.90;;;;;;5075712;28;20173;-69
2023/01/04 07:37:43;;;;;;;3.07;0.97;;;5.80;99.90;;;;;;5075614;28;20186;-69
2023/01/04 07:40:10;;;;;;;0.60;0.60;;;5.90;99.90;;;;;;5075770;28;20835;-68
2023/01/04 07:42:35;;;;;;;1.80;1.70;;;5.90;99.90;;;;;;5073723;28;20197;-69
2023/01/04 07:45:02;;;;;;;0.33;0.33;;;6.00;99.90;;;;;;5075461;28;20177;-69
2023/01/04 07:47:28;;;;;;;0.50;0.50;;;6.00;99.90;;;;;;5075671;28;20170;-70
2023/01/04 07:49:53;;;;;;;1.07;0.53;;;6.10;99.90;;;;;;5073729;28;20223;-70
2023/01/04 07:52:19;;;;;;;0.40;0.40;;;6.20;99.90;;;;;;5075524;28;20258;-70
2023/01/04 07:54:45;;;;;;;0.77;0.77;;;6.30;99.90;;;;;;5075031;28;20217;-69
2023/01/04 07:57:10;;;;;;;0.50;0.50;;;6.30;99.90;;;;;;5074302;28;20168;-68
2023/01/04 07:59:36;;;;;;;1.00;1.00;;;6.30;99.90;;;;;;5075418;28;20203;-69
2023/01/04 08:02:01;;;;;;;6.27;0.90;;;6.40;99.90;;;;;;5073933;28;20187;-69
2023/01/04 08:04:27;;;;;;;5.03;3.27;;;6.50;99.90;;;;;;5074641;28;20221;-68
2023/01/04 08:06:53;;;;;;;0.70;0.70;;;6.50;99.90;;;;;;5075373;28;20174;-69
2023/01/04 08:09:18;;;;;;;2.40;1.40;;;6.60;99.90;;;;;;5074913;28;20184;-69
2023/01/04 08:11:44;;;;;;;3.13;3.03;;;6.50;99.90;;;;;;5073987;28;20188;-68
2023/01/04 08:14:11;;;;;;;1.93;1.83;;;6.40;99.90;;;;;;5075070;28;20171;-68
2023/01/04 08:16:39;;;;;;;2.67;0.60;;;6.60;99.90;;;;;;5075056;28;20404;-69
2023/01/04 08:19:19;;;;;;;0.70;0.70;;;6.60;99.90;;;;;;5074827;28;20573;-68
2023/01/04 08:21:46;;;;;;;0.85;0.85;;;6.70;99.90;;;;;;5073125;28;20565;-68
2023/01/04 08:24:14;;;;;;;0.82;0.82;;;6.70;99.90;;;;;;5074504;28;20210;-68
2023/01/04 08:26:40;;;;;;;0.40;0.40;;;6.50;99.90;;;;;;5073732;28;20773;-68
2023/01/04 08:29:08;;;;;;;0.40;0.40;;;6.60;99.90;;;;;;5074810;28;20257;-68
2023/01/04 08:31:33;;;;;;;0.30;0.30;;;6.60;99.90;;;;;;5074669;28;20943;-68
2023/01/04 08:34:04;;;;;;;0.40;0.40;;;6.60;99.90;;;;;;5074539;28;20181;-68
2023/01/04 08:36:42;;;;;;;0.35;0.35;;;6.60;99.90;;;;;;5075115;28;20256;-67
2023/01/04 08:39:08;;;;;;;0.30;0.30;;;6.40;99.90;;;;;;5074704;28;20230;-67
2023/01/04 08:41:49;;;;;;;0.40;0.40;;;6.30;99.90;;;;;;5074405;28;20241;-68
2023/01/04 08:44:21;;;;;;;0.30;0.30;;;6.40;99.90;;;;;;5074248;28;20166;-68
2023/01/04 08:46:47;;;;;;;0.40;0.40;;;6.50;99.90;;;;;;5074499;28;20258;-68
2023/01/04 08:49:13;;;;;;;0.30;0.30;;;6.60;99.90;;;;;;5074475;28;20171;-68
2023/01/04 08:51:39;;;;;;;1.07;0.60;;;6.70;99.90;;;;;;5074096;28;20561;-68
2023/01/04 08:54:04;;;;;;;0.30;0.30;;;6.70;99.90;;;;;;5074396;28;20681;-69
2023/01/04 08:56:30;;;;;;;0.30;0.30;;;6.70;99.90;;;;;;5074550;28;20455;-70
2023/01/04 08:58:55;;;;;;;0.30;0.30;;;6.80;99.90;;;;;;5074603;28;20254;-69
2023/01/04 09:01:21;;;;;;;0.30;0.30;;;6.90;99.90;;;;;;5074254;28;20191;-70
2023/01/04 09:03:47;;;;;;;0.50;0.50;;;6.80;99.90;;;;;;5074205;28;20249;-70
2023/01/04 09:06:14;;;;;;;1.03;0.80;;;6.70;99.90;;;;;;5073929;28;20170;-69
2023/01/04 09:08:40;;;;;;;0.30;0.30;;;6.80;99.90;;;;;;5074459;28;20182;-70
2023/01/04 09:11:17;;;;;;;0.40;0.40;;;6.80;99.90;;;;;;5074051;28;20611;-69
2023/01/04 09:13:44;;;;;;;0.60;0.60;;;6.90;99.90;;;;;;5074626;28;20648;-69
2023/01/04 09:16:16;;;;;;;0.68;0.60;;;6.90;99.90;;;;;;5073772;28;20181;-69
2023/01/04 09:18:43;;;;;;;0.40;0.40;;;7.00;99.90;;;;;;5074188;28;20340;-69
2023/01/04 09:21:12;;;;;;;1.08;1.00;;;7.10;99.90;;;;;;5073227;28;20176;-69
2023/01/04 09:23:39;;;;;;;0.30;0.30;;;7.20;99.90;;;;;;5072873;28;20530;-69
2023/01/04 09:26:10;;;;;;;0.30;0.30;;;7.30;99.90;;;;;;5072195;28;20254;-69
2023/01/04 09:28:37;;;;;;;0.40;0.40;;;7.30;99.90;;;;;;5074167;28;20224;-71
2023/01/04 09:31:07;;;;;;;0.30;0.30;;;7.30;99.90;;;;;;5071681;28;20205;-71
2023/01/04 09:33:33;;;;;;;0.30;0.30;;;7.30;99.90;;;;;;5073689;28;20531;-69
2023/01/04 09:36:03;;;;;;;0.40;0.40;;;7.30;99.90;;;;;;5073527;28;20190;-71
2023/01/04 09:38:30;;;;;;;0.30;0.30;;;7.20;99.90;;;;;;5071640;28;20704;-69
2023/01/04 09:41:12;;;;;;;0.30;0.30;;;7.20;99.90;;;;;;5073481;28;20246;-72
2023/01/04 09:43:57;;;;;;;0.30;0.30;;;7.30;99.90;;;;;;5073568;28;20145;-69
2023/01/04 09:46:25;;;;;;;0.52;0.52;;;7.30;99.90;;;;;;5072796;28;20531;-71
2023/01/04 09:49:06;;;;;;;0.40;0.40;;;7.40;99.90;;;;;;5072082;28;20253;-71
2023/01/04 09:51:36;;;;;;;0.40;0.40;;;7.60;99.90;;;;;;5073784;28;20223;-69
2023/01/04 09:54:11;;;;;;;0.30;0.30;;;7.70;99.90;;;;;;5073680;28;20161;-70
2023/01/04 09:56:50;;;;;;;0.60;0.60;;;7.90;99.90;;;;;;5073605;28;20223;-68
2023/01/04 09:59:22;;;;;;;0.30;0.30;;;8.00;99.90;;;;;;5073516;28;20207;-68
2023/01/04 10:01:53;;;;;;;0.30;0.30;;;8.00;99.90;;;;;;5074017;28;20189;-69
2023/01/04 10:04:31;;;;;;;0.40;0.40;;;8.00;99.70;;;;;;5073684;28;20185;-69
2023/01/04 10:06:57;;;;;;;0.30;0.30;;;8.00;99.40;;;;;;5073895;28;20184;-69
2023/01/04 10:09:23;;;;;;;43.88;1.63;;;8.00;99.50;;;;;;5073285;28;20676;-71
2023/01/04 10:12:18;;;;;;;0.30;0.30;;;7.90;98.80;;;;;;5073599;28;20204;-71
2023/01/04 10:14:55;;;;;;;0.30;0.30;;;7.90;99.00;;;;;;5073302;28;20407;-70
2023/01/04 10:17:40;;;;;;;0.35;0.35;;;7.90;99.60;;;;;;5073484;28;20213;-68
2023/01/04 10:20:34;;;;;;;0.30;0.30;;;7.80;99.90;;;;;;5073629;28;20613;-70
2023/01/04 10:23:50;;;;;;;0.40;0.40;;;7.90;99.90;;;;;;5071346;28;20189;-70
2023/01/04 10:26:32;;;;;;;0.30;0.30;;;7.90;99.90;;;;;;5072382;28;20642;-70
2023/01/04 10:29:09;;;;;;;0.82;0.82;;;7.90;99.80;;;;;;5071643;28;20646;-69
2023/01/04 10:31:54;;;;;;;0.30;0.30;;;7.90;99.90;;;;;;5073901;28;20550;-69
2023/01/04 10:34:30;;;;;;;0.30;0.30;;;8.00;99.90;;;;;;5076625;28;20158;-69
2023/01/04 10:37:09;;;;;;;0.30;0.30;;;8.00;99.90;;;;;;5075219;28;20188;-69
2023/01/04 10:39:35;;;;;;;0.30;0.30;;;8.00;99.90;;;;;;5076986;28;20205;-69
2023/01/04 10:42:17;;;;;;;0.65;0.65;;;7.90;99.90;;;;;;5076898;28;20191;-69
2023/01/04 10:45:11;;;;;;;0.85;0.85;;;7.90;99.90;;;;;;5076742;28;20256;-69
2023/01/04 10:47:45;;;;;;;0.30;0.30;;;8.00;99.90;;;;;;5076641;28;20172;-69
2023/01/04 10:50:25;;;;;;;0.30;0.30;;;8.00;99.90;;;;;;5076864;28;20536;-68
2023/01/04 10:53:20;;;;;;;0.60;0.40;;;8.00;99.90;;;;;;5076531;28;20199;-68
2023/01/04 10:55:59;;;;;;;0.30;0.30;;;7.90;99.90;;;;;;5075633;28;20189;-69
2023/01/04 10:58:46;;;;;;;0.47;0.47;;;7.90;99.90;;;;;;5076451;28;20200;-69
2023/01/04 11:01:15;;;;;;;0.40;0.40;;;7.80;99.90;;;;;;5076345;28;20200;-69
2023/01/04 11:03:51;;;;;;;1.20;1.20;;;7.80;99.90;;;;;;5076285;28;20169;-69
2023/01/04 11:06:23;;;;;;;1.15;0.60;;;7.90;99.90;;;;;;5076356;28;20169;-68
2023/01/04 11:09:20;;;;;;;0.30;0.30;;;7.80;99.90;;;;;;5074917;28;20176;-70
2023/01/04 11:11:47;;;;;;;0.40;0.40;;;7.80;99.90;;;;;;5076445;28;20602;-70
2023/01/04 11:14:14;;;;;;;0.40;0.40;;;7.70;99.90;;;;;;5076621;28;20181;-70
2023/01/04 11:16:43;;;;;;;0.30;0.30;;;7.70;99.90;;;;;;5076774;28;20173;-70
2023/01/04 11:19:09;;;;;;;0.30;0.30;;;7.70;99.90;;;;;;5076142;28;20193;-70
2023/01/04 11:22:00;;;;;;;0.40;0.40;;;7.70;99.90;;;;;;5075979;28;20193;-70
2023/01/04 11:24:30;;;;;;;0.40;0.40;;;7.70;99.90;;;;;;5076165;28;20154;-69
2023/01/04 11:26:58;;;;;;;0.95;0.95;;;7.60;99.90;;;;;;5075602;28;20169;-69
2023/01/04 11:29:45;;;;;;;0.30;0.30;;;7.70;99.90;;;;;;5075627;28;20187;-69
2023/01/04 11:32:34;;;;;;;0.30;0.30;;;7.70;99.90;;;;;;5074447;28;20244;-69
2023/01/04 11:35:00;;;;;;;0.43;0.43;;;7.70;99.90;;;;;;5075777;28;20192;-69
2023/01/04 11:37:32;;;;;;;0.40;0.40;;;7.70;99.90;;;;;;5075646;28;20186;-69
2023/01/04 11:40:16;;;;;;;1.00;1.00;;;7.70;99.90;;;;;;5074400;28;20291;-68
2023/01/04 11:43:08;;;;;;;0.30;0.30;;;7.60;99.90;;;;;;5075547;28;20226;-69
2023/01/04 11:45:34;;;;;;;0.30;0.30;;;7.70;99.90;;;;;;5075148;28;20273;-68
2023/01/04 11:47:59;;;;;;;0.30;0.30;;;7.70;99.90;;;;;;5075753;28;20591;-69
2023/01/04 11:50:47;;;;;;;0.40;0.40;;;7.70;99.90;;;;;;5075518;28;20201;-69
2023/01/04 11:53:26;;;;;;;0.40;0.40;;;7.80;99.90;;;;;;5074175;28;20203;-69
2023/01/04 11:56:09;;;;;;;0.40;0.40;;;7.80;99.90;;;;;;5075535;28;20531;-69
2023/01/04 11:58:35;;;;;;;0.30;0.30;;;7.90;99.90;;;;;;5075474;28;20246;-68
2023/01/04 12:01:00;;;;;;;0.30;0.30;;;7.70;99.90;;;;;;5075216;28;20164;-69
2023/01/04 12:03:29;;;;;;;0.30;0.30;;;7.80;99.90;;;;;;5075350;28;20507;-69
2023/01/04 12:05:54;;;;;;;0.30;0.30;;;7.80;99.90;;;;;;5075158;28;20400;-68
2023/01/04 12:08:36;;;;;;;0.30;0.30;;;7.80;99.90;;;;;;5075324;28;20182;-69
2023/01/04 12:11:05;;;;;;;0.30;0.30;;;7.80;99.90;;;;;;5075158;28;20169;-69
2023/01/04 12:13:32;;;;;;;0.30;0.30;;;7.90;99.90;;;;;;5074987;28;20174;-67
2023/01/04 12:16:10;;;;;;;0.30;0.30;;;7.90;99.90;;;;;;5074947;28;20212;-67
2023/01/04 12:18:40;;;;;;;0.60;0.60;;;7.80;99.90;;;;;;5075071;28;20553;-70
2023/01/04 12:21:26;;;;;;;0.40;0.40;;;7.80;99.90;;;;;;5075111;28;20170;-67
2023/01/04 12:23:54;;;;;;;0.30;0.30;;;7.90;99.90;;;;;;5074915;28;20166;-68
2023/01/04 12:26:22;;;;;;;0.30;0.30;;;8.00;99.90;;;;;;5074706;28;20179;-68
2023/01/04 12:29:08;;;;;;;0.30;0.30;;;8.00;99.90;;;;;;5074893;28;20246;-68
2023/01/04 12:31:34;;;;;;;0.40;0.40;;;8.00;99.90;;;;;;5074681;28;20270;-68
2023/01/04 12:34:21;;;;;;;0.30;0.30;;;8.20;99.90;;;;;;5074599;28;20175;-68
2023/01/04 12:36:49;;;;;;;0.30;0.30;;;8.20;99.90;;;;;;5074752;28;20558;-68
2023/01/04 12:39:15;;;;;;;0.38;0.38;;;8.20;98.50;;;;;;5074699;28;20197;-68
2023/01/04 12:41:40;;;;;;;2.10;1.17;;;8.30;98.00;;;;;;5074443;28;20188;-68
2023/01/04 12:44:45;;;;;;;0.40;0.40;;;8.30;99.30;;;;;;5074543;28;20175;-67
2023/01/04 12:50:10;;;;;;;0.30;0.30;;;8.30;99.90;;;;;;5074700;28;20635;-68
2023/01/04 12:52:45;;;;;;;1.52;1.42;;;8.30;99.90;;;;;;5074466;28;20185;-68
2023/01/04 12:55:32;;;;;;;0.40;0.40;;;8.30;99.50;;;;;;5073227;28;20183;-68
2023/01/04 12:57:59;;;;;;;1.00;1.00;;;8.30;99.90;;;;;;5074723;28;20166;-68
2023/01/04 13:00:49;;;;;;;0.30;0.30;;;8.30;99.90;;;;;;5074246;28;20561;-68
2023/01/04 13:03:15;;;;;;;0.73;0.50;;;8.30;99.90;;;;;;5073972;28;20187;-68
2023/01/04 13:06:05;;;;;;;0.30;0.30;;;8.40;99.90;;;;;;5073917;28;20169;-68
2023/01/04 13:08:41;;;;;;;0.30;0.30;;;8.40;99.90;;;;;;5074603;28;20398;-68
2023/01/04 13:11:37;;;;;;;0.40;0.40;;;8.40;99.90;;;;;;5073965;28;20161;-67
2023/01/04 13:14:14;;;;;;;2.58;2.38;;;8.40;99.90;;;;;;5073298;28;20188;-68
2023/01/04 13:17:09;;;;;;;7.18;4.03;;;8.20;99.30;;;;;;5074129;28;20167;-68
2023/01/04 13:19:38;;;;;;;3.15;0.88;;;8.20;99.40;;;;;;5073936;28;20204;-68
2023/01/04 13:22:15;;;;;;;0.30;0.30;;;8.10;99.90;;;;;;5073740;28;20235;-68
2023/01/04 13:24:42;;;;;;;0.70;0.70;;;8.20;99.90;;;;;;5073908;28;20176;-68
2023/01/04 13:27:20;;;;;;;1.95;0.88;;;8.10;99.90;;;;;;5073850;28;20170;-68
2023/01/04 13:29:46;;;;;;;1.10;1.10;;;8.00;99.90;;;;;;5073985;28;20173;-68
2023/01/04 13:32:20;;;;;;;0.55;0.55;;;7.90;99.90;;;;;;5073682;28;20204;-68
2023/01/04 13:34:58;;;;;;;0.55;0.55;;;7.90;99.90;;;;;;5073436;28;20215;-68
2023/01/04 13:37:39;;;;;;;0.30;0.30;;;8.00;99.90;;;;;;5073548;28;20270;-68
2023/01/04 13:40:26;;;;;;;0.40;0.40;;;8.00;99.90;;;;;;5073654;28;20200;-68
2023/01/04 13:43:14;;;;;;;0.50;0.50;;;8.10;99.90;;;;;;5073668;28;20191;-68
2023/01/04 13:46:00;;;;;;;0.40;0.40;;;8.10;99.90;;;;;;5073492;28;20206;-68
2023/01/04 13:48:34;;;;;;;0.43;0.43;;;8.10;99.90;;;;;;5073753;28;20173;-68
2023/01/04 13:51:21;;;;;;;0.30;0.30;;;8.20;99.90;;;;;;5073367;28;20518;-68
2023/01/04 13:53:55;;;;;;;0.77;0.77;;;8.20;99.90;;;;;;5073533;28;20530;-68
2023/01/04 13:56:24;;;;;;;0.60;0.60;;;8.10;99.90;;;;;;5073406;28;20161;-68
2023/01/04 13:58:50;;;;;;;0.40;0.40;;;8.10;99.90;;;;;;5073527;28;20220;-68
2023/01/04 14:01:26;;;;;;;0.30;0.30;;;8.00;99.90;;;;;;5073514;28;20276;-68
2023/01/04 14:03:58;;;;;;;0.40;0.40;;;8.00;99.90;;;;;;5073547;28;20229;-68
2023/01/04 14:06:28;;;;;;;0.95;0.95;;;8.00;99.90;;;;;;5073734;28;20164;-68